Time;durP1;ratioP1;P1;durP2;ratioP2;P2;SDS_P1;SDS_P2;PMS_P1;PMS_P2;Temp;Humidity;BMP_temperature;BMP_pressure;BME280_temperature;BME280_humidity;BME280_pressure;Samples;Min_cycle;Max_cycle;Signal;HPM_P1;HPM_P2
2024/03/04 00:01:54;;;;;;;9.23;7.73;;;16.10;47.30;;;;;;5001939;28;20484;-61
2024/03/04 00:04:19;;;;;;;9.77;7.43;;;16.00;47.50;;;;;;5005335;28;20190;-59
2024/03/04 00:06:47;;;;;;;11.50;8.10;;;16.00;47.90;;;;;;5008808;28;20854;-60
2024/03/04 00:09:12;;;;;;;9.83;7.67;;;15.90;48.10;;;;;;5008977;28;20201;-59
2024/03/04 00:11:38;;;;;;;8.73;7.63;;;15.80;48.20;;;;;;5009737;28;20441;-60
2024/03/04 00:14:04;;;;;;;12.07;8.00;;;15.70;48.70;;;;;;5009466;28;20197;-60
2024/03/04 00:16:29;;;;;;;8.60;7.73;;;15.80;48.50;;;;;;5009086;28;20222;-59
2024/03/04 00:18:57;;;;;;;10.13;7.73;;;15.90;48.60;;;;;;5009593;28;20181;-58
2024/03/04 00:21:23;;;;;;;12.67;8.90;;;16.00;48.40;;;;;;5008141;28;20205;-55
2024/03/04 00:23:49;;;;;;;9.53;8.53;;;16.00;48.30;;;;;;5003845;28;20976;-60
2024/03/04 00:26:14;;;;;;;12.70;8.60;;;16.10;48.90;;;;;;5003129;28;20210;-60
2024/03/04 00:28:40;;;;;;;10.67;8.57;;;16.10;48.40;;;;;;5004709;28;20669;-59
2024/03/04 00:31:06;;;;;;;10.17;8.67;;;16.20;48.40;;;;;;5002733;28;20197;-58
2024/03/04 00:33:32;;;;;;;12.93;9.10;;;16.30;48.20;;;;;;5004482;28;20209;-58
2024/03/04 00:35:57;;;;;;;10.67;9.50;;;16.30;48.70;;;;;;5008440;28;20480;-63
2024/03/04 00:38:23;;;;;;;10.93;8.60;;;16.30;48.00;;;;;;5005330;28;20217;-60
2024/03/04 00:40:49;;;;;;;9.60;8.20;;;16.30;48.20;;;;;;5008710;28;20186;-62
2024/03/04 00:43:15;;;;;;;9.90;8.40;;;16.30;48.30;;;;;;5004302;28;20426;-62
2024/03/04 00:45:40;;;;;;;8.57;7.73;;;16.30;48.20;;;;;;5001218;28;20558;-62
2024/03/04 00:48:06;;;;;;;7.77;6.97;;;16.30;48.20;;;;;;5000319;28;20555;-62
2024/03/04 00:50:32;;;;;;;9.87;8.20;;;16.30;48.00;;;;;;5008664;28;20182;-62
2024/03/04 00:52:58;;;;;;;9.47;8.20;;;16.30;47.80;;;;;;5005730;28;20170;-63
2024/03/04 00:55:24;;;;;;;8.47;7.20;;;16.20;47.40;;;;;;5000489;28;20217;-61
2024/03/04 00:57:51;;;;;;;9.87;7.87;;;16.20;47.30;;;;;;5001300;28;20460;-61
2024/03/04 01:00:17;;;;;;;7.63;6.83;;;16.10;47.50;;;;;;4999293;28;21814;-62
2024/03/04 01:02:44;;;;;;;9.70;7.70;;;16.20;47.60;;;;;;5002285;28;20818;-61
2024/03/04 01:05:11;;;;;;;9.07;7.90;;;16.20;47.60;;;;;;5006699;28;20437;-61
2024/03/04 01:07:37;;;;;;;9.17;7.93;;;16.20;47.80;;;;;;5007214;28;20489;-64
2024/03/04 01:10:04;;;;;;;9.57;8.57;;;16.10;47.90;;;;;;5000785;28;20871;-62
2024/03/04 01:12:30;;;;;;;19.03;9.97;;;16.10;48.10;;;;;;5002132;28;20449;-61
2024/03/04 01:14:55;;;;;;;13.27;10.13;;;16.10;48.70;;;;;;5006539;28;20515;-60
2024/03/04 01:17:21;;;;;;;12.63;10.00;;;16.00;49.30;;;;;;5008010;28;20304;-61
2024/03/04 01:19:47;;;;;;;12.97;10.83;;;16.00;49.30;;;;;;5009028;28;20225;-61
2024/03/04 01:22:17;;;;;;;12.57;10.57;;;16.00;49.40;;;;;;5004660;28;20275;-62
2024/03/04 01:24:50;;;;;;;12.47;10.43;;;16.00;49.40;;;;;;5000910;28;20800;-61
2024/03/04 01:27:16;;;;;;;14.07;11.80;;;16.10;49.70;;;;;;5002366;28;21463;-62
2024/03/04 01:29:42;;;;;;;12.43;10.10;;;16.10;49.90;;;;;;5003672;28;20456;-60
2024/03/04 01:32:11;;;;;;;14.57;11.17;;;16.00;50.10;;;;;;5008230;28;20433;-62
2024/03/04 01:34:39;;;;;;;14.77;9.67;;;16.10;50.20;;;;;;5003317;28;20265;-62
2024/03/04 01:37:06;;;;;;;12.70;9.47;;;16.00;49.80;;;;;;4996837;28;20857;-60
2024/03/04 01:39:32;;;;;;;13.00;9.70;;;16.00;49.60;;;;;;4999880;28;20495;-61
2024/03/04 01:41:58;;;;;;;9.93;8.63;;;15.90;49.60;;;;;;5004499;28;20437;-62
2024/03/04 01:44:32;;;;;;;9.90;8.17;;;15.90;49.50;;;;;;5008395;28;20428;-61
2024/03/04 01:46:59;;;;;;;11.30;9.53;;;15.90;48.90;;;;;;5007157;28;20238;-62
2024/03/04 01:49:24;;;;;;;9.53;8.53;;;16.00;48.80;;;;;;5007335;28;20495;-58
2024/03/04 01:51:50;;;;;;;13.67;11.20;;;16.00;48.90;;;;;;5004127;28;20444;-59
2024/03/04 01:54:16;;;;;;;12.77;10.30;;;15.90;49.30;;;;;;5003761;28;20186;-62
2024/03/04 01:56:43;;;;;;;13.63;11.17;;;15.90;49.20;;;;;;5007235;28;20308;-60
2024/03/04 01:59:09;;;;;;;14.83;12.30;;;15.90;49.60;;;;;;5008047;28;20572;-60
2024/03/04 02:01:36;;;;;;;14.10;12.13;;;15.90;49.90;;;;;;5007043;28;20956;-62
2024/03/04 02:04:01;;;;;;;13.00;11.03;;;15.90;50.10;;;;;;5007752;28;20221;-62
2024/03/04 02:06:28;;;;;;;12.77;8.60;;;15.90;50.30;;;;;;5008602;28;20492;-58
2024/03/04 02:08:53;;;;;;;11.93;10.47;;;15.90;50.00;;;;;;5006179;28;20639;-60
2024/03/04 02:11:20;;;;;;;13.03;9.77;;;15.90;49.60;;;;;;5008632;28;20437;-59
2024/03/04 02:13:46;;;;;;;20.30;10.50;;;15.90;49.60;;;;;;5005546;28;20265;-60
2024/03/04 02:16:13;;;;;;;13.37;11.20;;;15.90;49.90;;;;;;5006908;28;20506;-59
2024/03/04 02:18:38;;;;;;;12.80;11.40;;;15.90;50.30;;;;;;5004154;28;20499;-60
2024/03/04 02:21:06;;;;;;;13.17;11.13;;;16.00;50.50;;;;;;4999220;28;20434;-59
2024/03/04 02:23:32;;;;;;;13.87;12.37;;;16.10;50.60;;;;;;5009612;28;20212;-59
2024/03/04 02:25:58;;;;;;;14.83;13.00;;;16.10;50.70;;;;;;5007013;28;20439;-62
2024/03/04 02:28:27;;;;;;;14.70;12.63;;;16.10;50.80;;;;;;5006896;28;20436;-61
2024/03/04 02:30:53;;;;;;;13.80;11.40;;;16.10;51.00;;;;;;5008331;28;20993;-58
2024/03/04 02:33:22;;;;;;;14.23;12.73;;;16.00;51.30;;;;;;5004941;28;20444;-63
2024/03/04 02:35:53;;;;;;;11.47;9.73;;;16.00;51.10;;;;;;5007857;28;20559;-61
2024/03/04 02:38:19;;;;;;;9.77;8.60;;;15.90;50.70;;;;;;5003485;28;20432;-60
2024/03/04 02:40:48;;;;;;;13.50;8.83;;;15.80;50.00;;;;;;5002928;28;20435;-61
2024/03/04 02:43:14;;;;;;;10.00;8.73;;;15.70;49.80;;;;;;5004600;28;20182;-61
2024/03/04 02:45:40;;;;;;;10.80;9.23;;;15.70;49.60;;;;;;5001048;28;20463;-61
2024/03/04 02:48:06;;;;;;;10.97;9.50;;;15.70;50.10;;;;;;5008998;28;20803;-58
2024/03/04 02:50:36;;;;;;;10.70;9.30;;;15.80;50.80;;;;;;5006430;28;20222;-60
2024/03/04 02:53:02;;;;;;;12.23;10.63;;;15.80;51.70;;;;;;5007667;28;20536;-59
2024/03/04 02:55:28;;;;;;;14.70;9.40;;;15.80;51.60;;;;;;5010759;28;21028;-60
2024/03/04 02:57:54;;;;;;;11.97;9.90;;;15.80;51.80;;;;;;5009730;28;20526;-60
2024/03/04 03:00:19;;;;;;;10.33;9.30;;;15.80;51.70;;;;;;5009190;28;20197;-58
2024/03/04 03:02:45;;;;;;;11.27;10.10;;;15.80;51.90;;;;;;5011274;28;20327;-58
2024/03/04 03:05:11;;;;;;;9.77;8.77;;;15.70;52.30;;;;;;5007718;28;20197;-60
2024/03/04 03:07:36;;;;;;;11.77;10.00;;;15.70;52.50;;;;;;5007079;28;20213;-60
2024/03/04 03:10:02;;;;;;;10.57;9.43;;;15.70;52.30;;;;;;5005787;28;20185;-58
2024/03/04 03:12:28;;;;;;;11.17;10.17;;;15.60;52.70;;;;;;5010739;28;20186;-59
2024/03/04 03:14:55;;;;;;;11.70;9.90;;;15.60;53.00;;;;;;5010922;28;20452;-59
2024/03/04 03:17:22;;;;;;;11.93;10.63;;;15.50;53.30;;;;;;5010336;28;20229;-61
2024/03/04 03:19:47;;;;;;;14.00;11.30;;;15.50;53.60;;;;;;5007583;28;20897;-58
2024/03/04 03:22:13;;;;;;;10.90;9.63;;;15.40;54.10;;;;;;5009831;28;20437;-61
2024/03/04 03:24:40;;;;;;;11.80;10.60;;;15.30;54.50;;;;;;5010356;28;20190;-61
2024/03/04 03:27:06;;;;;;;12.97;11.60;;;15.30;54.70;;;;;;5007734;28;20230;-58
2024/03/04 03:29:32;;;;;;;11.53;10.43;;;15.30;54.70;;;;;;5010644;28;20460;-58
2024/03/04 03:31:57;;;;;;;11.73;10.47;;;15.30;54.80;;;;;;5010833;28;20193;-62
2024/03/04 03:34:23;;;;;;;11.80;10.10;;;15.40;55.00;;;;;;5010522;28;20190;-60
2024/03/04 03:36:48;;;;;;;13.47;11.27;;;15.40;55.20;;;;;;5010164;28;20252;-58
2024/03/04 03:39:14;;;;;;;14.20;12.30;;;15.40;55.60;;;;;;5003743;28;20266;-58
2024/03/04 03:41:40;;;;;;;15.97;11.93;;;15.20;55.90;;;;;;5009546;28;20236;-61
2024/03/04 03:44:06;;;;;;;16.90;12.77;;;15.10;56.60;;;;;;5010075;28;20425;-60
2024/03/04 03:46:32;;;;;;;13.40;10.90;;;15.10;56.60;;;;;;5009145;28;20233;-58
2024/03/04 03:48:58;;;;;;;12.87;10.37;;;15.10;56.60;;;;;;5007277;28;20452;-63
2024/03/04 03:51:23;;;;;;;12.10;10.67;;;15.20;56.20;;;;;;5005000;28;20201;-59
2024/03/04 03:53:49;;;;;;;14.40;12.27;;;15.40;55.80;;;;;;5008979;28;20220;-60
2024/03/04 03:56:15;;;;;;;17.20;14.17;;;15.40;55.40;;;;;;5009758;28;20740;-57
2024/03/04 03:58:41;;;;;;;13.50;11.60;;;15.20;55.90;;;;;;5004282;28;20279;-58
2024/03/04 04:01:06;;;;;;;13.83;11.60;;;15.30;55.80;;;;;;5004288;28;20214;-57
2024/03/04 04:03:33;;;;;;;12.30;10.43;;;15.40;55.50;;;;;;5007276;28;20666;-58
2024/03/04 04:06:00;;;;;;;12.90;10.63;;;15.40;55.20;;;;;;5005971;28;20673;-60
2024/03/04 04:08:25;;;;;;;12.40;11.10;;;15.60;54.80;;;;;;5006870;28;20511;-60
2024/03/04 04:10:51;;;;;;;14.13;10.50;;;15.70;54.00;;;;;;5006933;28;20441;-59
2024/03/04 04:13:17;;;;;;;13.10;10.50;;;15.80;53.60;;;;;;5006191;28;20213;-57
2024/03/04 04:15:42;;;;;;;13.43;10.10;;;15.80;52.90;;;;;;5005619;28;20230;-59
2024/03/04 04:18:08;;;;;;;12.77;11.47;;;15.80;52.80;;;;;;5001066;28;20197;-58
2024/03/04 04:20:33;;;;;;;13.70;12.03;;;15.90;53.10;;;;;;5010328;28;20602;-58
2024/03/04 04:22:59;;;;;;;14.07;12.40;;;15.80;53.50;;;;;;5011204;28;20181;-60
2024/03/04 04:25:24;;;;;;;16.23;13.13;;;15.80;53.90;;;;;;5006058;28;20182;-56
2024/03/04 04:27:50;;;;;;;15.33;12.57;;;15.90;54.20;;;;;;5006393;28;20214;-60
2024/03/04 04:30:16;;;;;;;16.53;14.80;;;15.80;54.30;;;;;;5008601;28;20190;-60
2024/03/04 04:32:41;;;;;;;17.70;14.43;;;15.80;54.80;;;;;;5006447;28;20201;-60
2024/03/04 04:35:07;;;;;;;18.20;14.27;;;15.70;55.30;;;;;;5009203;28;20182;-59
2024/03/04 04:37:33;;;;;;;18.00;13.70;;;15.50;55.80;;;;;;5006076;28;20268;-60
2024/03/04 04:39:58;;;;;;;17.50;14.30;;;15.50;55.90;;;;;;5007927;28;20252;-59
2024/03/04 04:42:24;;;;;;;21.80;16.40;;;15.50;56.10;;;;;;5006224;28;20221;-61
2024/03/04 04:44:50;;;;;;;18.27;15.97;;;15.50;56.30;;;;;;5005268;28;20190;-61
2024/03/04 04:47:16;;;;;;;19.67;16.33;;;15.60;56.10;;;;;;5005942;28;20832;-60
2024/03/04 04:49:42;;;;;;;19.53;15.47;;;15.50;56.10;;;;;;5006074;28;20259;-62
2024/03/04 04:52:08;;;;;;;20.33;17.50;;;15.50;56.10;;;;;;5004601;28;20495;-59
2024/03/04 04:54:34;;;;;;;20.00;16.87;;;15.50;56.80;;;;;;5004463;28;20441;-62
2024/03/04 04:56:59;;;;;;;21.27;17.63;;;15.50;56.30;;;;;;5007973;28;20704;-60
2024/03/04 04:59:25;;;;;;;22.83;16.87;;;15.50;56.50;;;;;;5001283;28;20190;-57
2024/03/04 05:01:51;;;;;;;23.03;17.63;;;15.40;56.60;;;;;;5004744;28;20194;-59
2024/03/04 05:04:18;;;;;;;22.07;16.77;;;15.30;57.30;;;;;;5003309;28;20193;-58
2024/03/04 05:06:44;;;;;;;22.50;18.37;;;15.00;57.70;;;;;;4999073;28;20224;-61
2024/03/04 05:09:10;;;;;;;24.63;17.13;;;14.80;58.10;;;;;;5003319;28;20440;-58
2024/03/04 05:11:36;;;;;;;25.87;18.80;;;14.70;58.60;;;;;;5008872;28;20214;-59
2024/03/04 05:14:02;;;;;;;25.47;18.40;;;14.70;58.90;;;;;;5005740;28;20815;-58
2024/03/04 05:16:29;;;;;;;28.37;20.70;;;14.60;58.90;;;;;;5006250;28;20308;-60
2024/03/04 05:18:56;;;;;;;23.63;18.00;;;14.60;59.30;;;;;;5001742;28;20186;-57
2024/03/04 05:21:22;;;;;;;22.10;17.93;;;14.50;59.40;;;;;;5004201;28;20437;-58
2024/03/04 05:23:47;;;;;;;24.27;19.47;;;14.30;59.80;;;;;;5006731;28;20830;-57
2024/03/04 05:26:13;;;;;;;24.80;17.77;;;14.40;59.80;;;;;;5004307;28;20603;-60
2024/03/04 05:28:39;;;;;;;26.77;20.90;;;14.40;60.10;;;;;;4999415;28;20190;-59
2024/03/04 05:31:04;;;;;;;26.93;19.30;;;14.50;59.90;;;;;;5008413;28;20181;-58
2024/03/04 05:33:30;;;;;;;28.30;20.37;;;14.30;60.30;;;;;;5006675;28;20186;-60
2024/03/04 05:35:55;;;;;;;29.43;20.87;;;14.10;60.90;;;;;;5006669;28;20791;-58
2024/03/04 05:38:21;;;;;;;27.83;20.50;;;14.20;60.80;;;;;;5007266;28;20208;-58
2024/03/04 05:40:46;;;;;;;30.47;20.23;;;14.30;60.80;;;;;;5000065;28;20182;-61
2024/03/04 05:43:12;;;;;;;26.63;19.87;;;14.40;60.50;;;;;;4997141;28;20216;-61
2024/03/04 05:45:38;;;;;;;29.40;21.50;;;14.30;60.50;;;;;;5003114;28;20277;-60
2024/03/04 05:48:05;;;;;;;29.00;22.40;;;14.20;60.80;;;;;;5000682;28;20578;-59
2024/03/04 05:50:31;;;;;;;27.70;22.33;;;14.20;60.80;;;;;;5000871;28;20202;-62
2024/03/04 05:52:56;;;;;;;29.50;21.63;;;14.20;61.30;;;;;;5004722;28;20433;-57
2024/03/04 05:55:22;;;;;;;34.43;22.90;;;14.10;61.30;;;;;;5000748;28;20270;-58
2024/03/04 05:57:47;;;;;;;34.17;22.73;;;14.00;61.80;;;;;;5003682;28;20241;-59
2024/03/04 06:00:16;;;;;;;29.80;21.87;;;13.90;62.30;;;;;;4999919;28;20201;-58
2024/03/04 06:02:43;;;;;;;32.60;22.20;;;13.90;63.20;;;;;;5007451;28;20186;-58
2024/03/04 06:05:11;;;;;;;33.77;22.67;;;13.80;62.90;;;;;;5000758;28;20504;-61
2024/03/04 06:07:37;;;;;;;34.63;23.17;;;13.90;62.60;;;;;;4999654;28;21223;-62
2024/03/04 06:10:03;;;;;;;34.23;22.93;;;14.00;62.40;;;;;;5006074;28;20472;-60
2024/03/04 06:12:29;;;;;;;38.40;22.97;;;14.00;62.40;;;;;;5000110;28;20484;-60
2024/03/04 06:14:54;;;;;;;30.53;22.57;;;13.80;62.70;;;;;;4998939;28;20464;-62
2024/03/04 06:17:20;;;;;;;33.20;22.93;;;13.80;63.20;;;;;;5001565;28;20260;-58
2024/03/04 06:19:46;;;;;;;29.47;22.77;;;13.80;63.40;;;;;;5000060;28;20182;-59
2024/03/04 06:22:12;;;;;;;33.90;24.27;;;13.70;63.40;;;;;;5000712;28;20817;-58
2024/03/04 06:24:41;;;;;;;30.80;22.33;;;13.80;63.70;;;;;;4998449;28;20197;-61
2024/03/04 06:27:07;;;;;;;33.80;23.40;;;13.90;63.50;;;;;;4998779;28;20484;-61
2024/03/04 06:29:33;;;;;;;33.80;22.40;;;13.80;63.20;;;;;;4999916;28;20437;-59
2024/03/04 06:32:00;;;;;;;35.40;23.73;;;13.60;63.80;;;;;;4999841;28;20190;-60
2024/03/04 06:34:26;;;;;;;35.90;24.73;;;13.70;64.80;;;;;;5000647;28;20940;-59
2024/03/04 06:36:52;;;;;;;35.10;25.50;;;13.80;63.80;;;;;;5000787;28;20512;-60
2024/03/04 06:39:20;;;;;;;38.27;27.23;;;13.90;63.40;;;;;;5000046;28;20432;-58
2024/03/04 06:41:46;;;;;;;35.83;24.50;;;13.90;63.30;;;;;;4999698;28;20955;-58
2024/03/04 06:44:12;;;;;;;42.40;26.20;;;13.90;63.30;;;;;;5004454;28;20428;-59
2024/03/04 06:46:37;;;;;;;35.60;25.33;;;14.00;62.90;;;;;;5001711;28;20471;-61
2024/03/04 06:49:03;;;;;;;37.57;22.57;;;14.00;62.70;;;;;;5004469;28;20213;-59
2024/03/04 06:51:32;;;;;;;34.87;24.17;;;13.90;63.00;;;;;;5008087;28;20703;-61
2024/03/04 06:53:58;;;;;;;39.50;24.93;;;14.00;62.90;;;;;;5004685;28;20186;-61
2024/03/04 06:56:23;;;;;;;40.37;24.63;;;14.00;62.70;;;;;;5005901;28;20479;-60
2024/03/04 06:58:49;;;;;;;36.47;25.43;;;14.00;62.50;;;;;;5003220;28;20879;-58
2024/03/04 07:01:15;;;;;;;35.70;25.17;;;14.00;62.80;;;;;;5005651;28;20201;-60
2024/03/04 07:03:43;;;;;;;35.80;23.70;;;14.00;63.10;;;;;;5006659;28;20196;-58
2024/03/04 07:06:13;;;;;;;39.97;28.53;;;13.80;63.40;;;;;;5004416;28;20226;-58
2024/03/04 07:08:40;;;;;;;39.20;25.27;;;13.90;63.30;;;;;;5009307;28;20430;-60
2024/03/04 07:11:05;;;;;;;43.27;25.63;;;13.80;63.90;;;;;;5011479;28;20436;-58
2024/03/04 07:13:31;;;;;;;46.13;26.37;;;13.80;64.10;;;;;;5008741;28;20418;-62
2024/03/04 07:15:57;;;;;;;36.93;25.70;;;13.70;64.10;;;;;;5008528;28;20222;-60
2024/03/04 07:18:24;;;;;;;39.60;25.33;;;13.70;64.00;;;;;;5010067;28;20248;-59
2024/03/04 07:20:49;;;;;;;39.60;25.13;;;13.70;64.40;;;;;;5010035;28;20437;-60
2024/03/04 07:23:15;;;;;;;44.50;27.27;;;13.80;64.20;;;;;;5008452;28;20417;-60
2024/03/04 07:25:40;;;;;;;47.53;27.10;;;13.60;64.60;;;;;;5010260;28;20218;-60
2024/03/04 07:28:06;;;;;;;37.93;24.90;;;13.60;65.10;;;;;;5006785;28;20210;-59
2024/03/04 07:30:32;;;;;;;39.83;26.47;;;13.70;64.70;;;;;;5009004;28;20672;-60
2024/03/04 07:32:57;;;;;;;40.53;27.87;;;13.70;64.50;;;;;;5010052;28;20220;-59
2024/03/04 07:35:23;;;;;;;40.07;25.50;;;13.80;65.40;;;;;;5010406;28;20194;-58
2024/03/04 07:37:48;;;;;;;37.80;25.80;;;13.70;64.60;;;;;;5008374;28;20283;-61
2024/03/04 07:40:14;;;;;;;41.70;27.30;;;13.90;64.30;;;;;;5010169;28;20214;-60
2024/03/04 07:42:39;;;;;;;45.57;27.10;;;13.90;64.30;;;;;;5006829;28;20194;-60
2024/03/04 07:45:06;;;;;;;42.23;27.20;;;14.00;63.90;;;;;;5007918;28;20273;-57
2024/03/04 07:47:31;;;;;;;39.73;26.73;;;13.90;64.00;;;;;;5007547;28;20328;-59
2024/03/04 07:49:57;;;;;;;45.03;28.50;;;13.80;64.50;;;;;;5008366;28;20991;-58
2024/03/04 07:52:23;;;;;;;40.47;27.63;;;13.80;64.80;;;;;;5007028;28;20189;-58
2024/03/04 07:54:48;;;;;;;47.10;28.03;;;13.70;64.80;;;;;;5008145;28;20790;-58
2024/03/04 07:57:14;;;;;;;40.37;27.07;;;13.70;65.40;;;;;;5009075;28;20221;-62
2024/03/04 07:59:39;;;;;;;45.87;29.23;;;13.90;64.80;;;;;;5006442;28;20259;-58
2024/03/04 08:02:07;;;;;;;47.93;31.93;;;13.90;64.80;;;;;;5005321;28;20186;-61
2024/03/04 08:04:34;;;;;;;48.43;31.27;;;13.70;65.20;;;;;;5008909;28;20194;-58
2024/03/04 08:06:59;;;;;;;43.13;27.57;;;13.80;65.00;;;;;;5005842;28;20463;-62
2024/03/04 08:09:25;;;;;;;45.37;28.87;;;13.90;64.80;;;;;;5037405;22;20494;-61
2024/03/04 08:11:50;;;;;;;47.73;30.07;;;13.90;64.60;;;;;;5051707;28;20256;-64
2024/03/04 08:14:16;;;;;;;44.43;27.87;;;14.00;64.40;;;;;;5054002;28;20662;-63
2024/03/04 08:16:42;;;;;;;47.40;28.40;;;14.00;64.30;;;;;;5056709;28;20266;-63
2024/03/04 08:19:11;;;;;;;54.60;29.97;;;14.10;64.10;;;;;;5056478;28;20792;-59
2024/03/04 08:21:37;;;;;;;46.70;27.83;;;14.30;63.70;;;;;;5049439;28;20211;-64
2024/03/04 08:24:03;;;;;;;48.97;28.57;;;14.40;63.40;;;;;;5054069;28;20548;-63
2024/03/04 08:26:29;;;;;;;48.00;28.77;;;14.20;63.90;;;;;;5054795;28;20542;-62
2024/03/04 08:28:58;;;;;;;45.87;29.07;;;14.20;63.80;;;;;;5054670;28;20923;-61
2024/03/04 08:31:23;;;;;;;44.30;28.50;;;14.30;63.80;;;;;;5054184;28;20209;-59
2024/03/04 08:33:49;;;;;;;41.87;27.50;;;14.30;63.80;;;;;;5050403;28;20880;-63
2024/03/04 08:36:15;;;;;;;43.23;29.00;;;14.40;63.20;;;;;;5051608;28;20220;-63
2024/03/04 08:38:40;;;;;;;45.90;28.10;;;14.50;63.00;;;;;;5051824;28;20756;-63
2024/03/04 08:41:06;;;;;;;49.43;29.90;;;14.60;62.50;;;;;;5054681;28;20188;-57
2024/03/04 08:43:32;;;;;;;44.17;28.37;;;14.60;62.30;;;;;;5057041;28;20188;-61
2024/03/04 08:45:57;;;;;;;44.27;28.47;;;14.40;62.70;;;;;;5061518;28;20199;-64
2024/03/04 08:48:24;;;;;;;46.53;29.00;;;14.10;63.90;;;;;;5054128;28;20438;-64
2024/03/04 08:50:49;;;;;;;46.07;29.70;;;14.00;64.40;;;;;;5058806;28;21447;-61
2024/03/04 08:53:15;;;;;;;44.77;29.30;;;14.10;64.70;;;;;;5050001;28;20437;-65
2024/03/04 08:55:40;;;;;;;49.70;30.60;;;14.00;64.40;;;;;;5056775;28;20196;-61
2024/03/04 08:58:06;;;;;;;41.40;26.50;;;14.10;64.60;;;;;;5054312;28;20223;-60
2024/03/04 09:00:32;;;;;;;49.13;30.17;;;14.20;64.60;;;;;;5051827;28;20192;-63
2024/03/04 09:02:57;;;;;;;43.17;29.17;;;14.30;64.20;;;;;;5053550;28;20226;-63
2024/03/04 09:05:23;;;;;;;47.77;29.33;;;14.40;64.10;;;;;;5052322;28;20192;-64
2024/03/04 09:07:49;;;;;;;52.50;29.80;;;14.20;64.30;;;;;;5055850;28;20203;-64
2024/03/04 09:10:17;;;;;;;46.80;29.40;;;14.20;64.70;;;;;;5053535;28;20204;-60
2024/03/04 09:12:44;;;;;;;44.97;27.83;;;14.10;65.00;;;;;;5057959;28;20977;-66
2024/03/04 09:15:12;;;;;;;41.73;26.97;;;14.20;64.80;;;;;;5048158;28;21019;-62
2024/03/04 09:17:39;;;;;;;45.67;28.23;;;14.30;64.10;;;;;;5054262;28;20506;-62
2024/03/04 09:20:05;;;;;;;47.97;29.40;;;14.40;64.10;;;;;;5051530;28;20462;-61
2024/03/04 09:22:31;;;;;;;46.93;28.80;;;14.40;64.10;;;;;;5048682;28;20974;-67
2024/03/04 09:24:57;;;;;;;48.40;29.53;;;14.20;65.00;;;;;;5050670;28;20462;-60
2024/03/04 09:27:22;;;;;;;44.37;28.23;;;14.10;65.00;;;;;;5048860;28;20204;-62
2024/03/04 09:29:48;;;;;;;46.27;28.87;;;14.30;64.70;;;;;;5046143;28;20184;-59
2024/03/04 09:32:14;;;;;;;48.37;29.37;;;14.30;64.60;;;;;;5045807;28;20192;-62
2024/03/04 09:34:39;;;;;;;46.63;29.27;;;14.30;64.50;;;;;;5047896;28;20211;-61
2024/03/04 09:37:05;;;;;;;45.00;29.40;;;14.40;64.30;;;;;;5051006;28;20247;-61
2024/03/04 09:39:30;;;;;;;46.37;27.33;;;14.50;63.90;;;;;;5053714;28;20184;-65
2024/03/04 09:41:56;;;;;;;45.83;27.20;;;14.60;63.90;;;;;;5051165;28;20222;-62
2024/03/04 09:44:24;;;;;;;42.60;27.20;;;14.50;63.80;;;;;;5048575;28;20181;-61
2024/03/04 09:46:51;;;;;;;43.60;27.37;;;14.50;64.20;;;;;;5051986;28;20465;-63
2024/03/04 09:49:18;;;;;;;46.63;30.53;;;14.60;63.90;;;;;;5046314;28;20530;-62
2024/03/04 09:51:45;;;;;;;46.00;27.47;;;14.70;63.40;;;;;;5050439;28;20435;-63
2024/03/04 09:54:14;;;;;;;46.67;27.33;;;14.80;63.30;;;;;;5045114;28;20861;-62
2024/03/04 09:56:39;;;;;;;50.27;29.63;;;14.80;63.00;;;;;;5056195;28;20475;-61
2024/03/04 09:59:05;;;;;;;49.70;29.60;;;14.80;62.70;;;;;;5058482;28;20415;-60
2024/03/04 10:01:32;;;;;;;56.70;29.77;;;14.80;62.50;;;;;;5053191;28;20181;-66
2024/03/04 10:03:58;;;;;;;46.33;27.90;;;14.70;62.60;;;;;;5051341;28;20189;-67
2024/03/04 10:06:24;;;;;;;55.57;32.50;;;14.70;62.90;;;;;;5046370;28;20516;-61
2024/03/04 10:08:50;;;;;;;50.47;30.37;;;14.70;63.00;;;;;;5049263;28;20466;-63
2024/03/04 10:11:15;;;;;;;48.93;28.60;;;14.80;63.10;;;;;;5056633;28;20188;-57
2024/03/04 10:13:42;;;;;;;29.90;18.17;;;14.80;62.60;;;;;;5048473;28;20181;-60
2024/03/04 10:16:13;;;;;;;47.20;27.90;;;14.90;62.50;;;;;;5055652;28;20650;-65
2024/03/04 10:18:38;;;;;;;37.23;20.60;;;15.10;61.80;;;;;;5049486;28;20430;-62
2024/03/04 10:21:04;;;;;;;56.80;31.10;;;15.30;61.90;;;;;;5050791;28;20443;-68
2024/03/04 10:23:30;;;;;;;52.87;29.03;;;15.40;60.80;;;;;;5053110;28;20216;-66
2024/03/04 10:26:08;;;;;;;54.90;28.80;;;15.60;60.00;;;;;;5054127;28;20251;-60
2024/03/04 10:28:41;;;;;;;55.00;30.97;;;15.60;59.90;;;;;;5054608;28;20786;-65
2024/03/04 10:31:15;;;;;;;52.20;29.53;;;15.60;60.10;;;;;;5049067;28;20525;-60
2024/03/04 10:33:41;;;;;;;48.40;28.37;;;15.60;59.60;;;;;;5037398;28;20444;-60
2024/03/04 10:36:17;;;;;;;53.83;30.13;;;15.40;59.70;;;;;;5041918;28;20822;-65
2024/03/04 10:38:47;;;;;;;46.87;29.00;;;15.50;59.70;;;;;;5045553;28;20185;-61
2024/03/04 10:41:16;;;;;;;44.10;29.03;;;15.50;59.60;;;;;;5049882;28;20445;-63
2024/03/04 10:43:43;;;;;;;48.43;30.83;;;15.40;59.60;;;;;;5051256;28;20431;-57
2024/03/04 10:46:10;;;;;;;51.97;28.60;;;15.50;59.60;;;;;;5047582;28;20848;-61
2024/03/04 10:48:37;;;;;;;44.57;27.03;;;15.60;59.60;;;;;;5050200;28;20446;-62
2024/03/04 10:51:03;;;;;;;49.93;28.73;;;15.70;59.30;;;;;;5055474;28;20456;-61
2024/03/04 10:53:29;;;;;;;44.47;28.00;;;15.90;59.20;;;;;;5057096;28;20496;-59
2024/03/04 10:56:03;;;;;;;50.70;31.03;;;16.00;58.70;;;;;;5055965;28;20977;-61
2024/03/04 10:58:31;;;;;;;44.80;26.37;;;16.10;58.50;;;;;;5049426;28;20644;-61
2024/03/04 11:01:00;;;;;;;42.40;28.47;;;16.10;58.20;;;;;;5052996;28;20484;-62
2024/03/04 11:03:28;;;;;;;44.30;28.10;;;16.00;58.30;;;;;;5049769;28;20449;-61
2024/03/04 11:05:56;;;;;;;41.87;27.60;;;15.90;58.30;;;;;;5048784;28;20454;-58
2024/03/04 11:08:36;;;;;;;46.97;28.23;;;15.80;58.70;;;;;;5055716;28;20479;-59
2024/03/04 11:11:23;;;;;;;46.73;29.37;;;15.70;58.80;;;;;;5058881;28;20422;-69
2024/03/04 11:14:01;;;;;;;43.97;29.30;;;15.80;58.80;;;;;;5060367;28;20430;-65
2024/03/04 11:16:49;;;;;;;51.33;30.20;;;15.60;59.30;;;;;;5049857;28;20488;-61
2024/03/04 11:19:43;;;;;;;45.83;29.50;;;15.50;59.40;;;;;;5048163;28;20645;-64
2024/03/04 11:22:12;;;;;;;43.83;29.67;;;15.60;59.30;;;;;;5048775;28;20445;-64
2024/03/04 11:24:38;;;;;;;46.83;29.50;;;15.70;59.20;;;;;;5050186;28;21000;-62
2024/03/04 11:27:05;;;;;;;48.47;32.10;;;15.80;59.10;;;;;;5053222;28;20489;-65
2024/03/04 11:29:31;;;;;;;50.67;31.60;;;15.60;59.00;;;;;;5048690;28;20526;-65
2024/03/04 11:31:59;;;;;;;52.17;29.57;;;15.50;59.30;;;;;;5052492;28;20446;-66
2024/03/04 11:34:25;;;;;;;47.80;30.17;;;15.50;59.30;;;;;;5052630;28;21180;-59
2024/03/04 11:36:51;;;;;;;57.87;32.87;;;15.60;59.20;;;;;;5061435;28;20477;-60
2024/03/04 11:39:22;;;;;;;53.13;32.70;;;15.60;59.30;;;;;;5054390;28;20208;-61
2024/03/04 11:41:51;;;;;;;41.60;28.90;;;15.50;59.50;;;;;;5062210;28;20427;-62
2024/03/04 11:44:23;;;;;;;51.73;32.43;;;15.60;59.50;;;;;;5057519;28;21201;-59
2024/03/04 11:46:48;;;;;;;53.07;30.60;;;15.60;59.50;;;;;;5056476;28;20830;-59
2024/03/04 11:49:25;;;;;;;51.27;30.87;;;15.70;59.40;;;;;;5058665;28;20480;-60
2024/03/04 11:52:06;;;;;;;51.60;31.77;;;15.70;59.30;;;;;;5051735;28;20937;-59
2024/03/04 11:54:34;;;;;;;60.10;31.53;;;15.60;59.60;;;;;;5055208;28;20493;-62
2024/03/04 11:57:01;;;;;;;50.47;29.97;;;15.50;59.60;;;;;;5057147;28;20473;-69
2024/03/04 11:59:27;;;;;;;53.97;31.00;;;15.50;59.50;;;;;;5058200;28;20475;-57
2024/03/04 12:01:53;;;;;;;53.13;30.20;;;15.50;59.50;;;;;;5052147;28;20465;-59
2024/03/04 12:04:22;;;;;;;53.93;30.53;;;15.30;59.80;;;;;;5050606;28;20192;-59
2024/03/04 12:06:47;;;;;;;49.97;30.10;;;15.30;60.00;;;;;;5059470;28;21041;-64
2024/03/04 12:09:16;;;;;;;51.47;28.17;;;15.40;60.00;;;;;;5055635;28;20436;-60
2024/03/04 12:11:42;;;;;;;51.53;29.90;;;15.60;59.70;;;;;;5049131;28;20190;-60
2024/03/04 12:14:08;;;;;;;49.70;31.40;;;15.50;59.80;;;;;;5052979;28;20517;-64
2024/03/04 12:16:34;;;;;;;49.00;29.73;;;15.30;60.20;;;;;;5057362;28;20588;-64
2024/03/04 12:19:00;;;;;;;46.27;29.60;;;15.10;60.90;;;;;;5055042;28;20473;-62
2024/03/04 12:21:28;;;;;;;46.70;30.30;;;15.10;61.20;;;;;;5051977;28;20962;-63
2024/03/04 12:23:55;;;;;;;50.37;28.87;;;15.20;61.10;;;;;;5055749;28;20933;-59
2024/03/04 12:26:21;;;;;;;48.47;29.30;;;15.30;60.60;;;;;;5052728;28;20816;-61